Terminal Aerodrome Forecast
Issued by NWS

Home | Current Version | Previous Version | Text Only | Print | Product List | Glossary On
Versions: 1 2 3 4 5 6 7 8 9 10 11 12 13 14 15 16 17 18 19 20 21
000
FTUS45 KTFX 231146
TAFCTB
TAF
KCTB 231146Z 2312/2412 15005KT P6SM BKN006
      TEMPO 2312/2315 4SM BR BKN002
     FM231500 25011KT P6SM SCT020 BKN030
      TEMPO 2316/2319 -SHRA BKN020
     FM231900 28008KT P6SM -SHRA SCT025 BKN040
     FM232300 27010KT P6SM SCT040 BKN060=

USA.gov is the U.S. government's official web portal to all federal, state and local government web resources and services.